createdAt,value
2022-12-15T00:01:12.255Z,-2.68
2022-12-15T00:04:38.684Z,-2.65
2022-12-15T00:08:05.333Z,-2.63
2022-12-15T00:11:31.769Z,-2.62
2022-12-15T00:14:58.521Z,-2.59
2022-12-15T00:18:28.214Z,-2.64
2022-12-15T00:21:54.618Z,-2.66
2022-12-15T00:25:21.324Z,-2.62
2022-12-15T00:28:47.783Z,-2.56
2022-12-15T00:32:14.208Z,-2.56
2022-12-15T00:35:41.232Z,-2.53
2022-12-15T00:38:53.832Z,-2.51
2022-12-15T00:42:05.677Z,-2.49
2022-12-15T00:45:18.587Z,-2.52
2022-12-15T00:48:30.499Z,-2.48
2022-12-15T00:51:57.298Z,-2.45
2022-12-15T00:55:25.427Z,-2.43
2022-12-15T00:58:52.170Z,-2.42
2022-12-15T01:02:19.657Z,-2.42
2022-12-15T01:05:46.292Z,-2.42
2022-12-15T01:09:12.824Z,-2.38
2022-12-15T01:12:39.628Z,-2.36
2022-12-15T01:16:06.461Z,-2.35
2022-12-15T01:19:33.098Z,-2.37
2022-12-15T01:22:45.908Z,-2.41
2022-12-15T01:26:00.417Z,-2.41
2022-12-15T01:29:12.360Z,-2.43
2022-12-15T01:32:24.351Z,-2.44
2022-12-15T01:35:36.200Z,-2.42
2022-12-15T01:38:53.697Z,-2.41
2022-12-15T01:42:01.861Z,-2.42
2022-12-15T01:45:51.848Z,-2.43
2022-12-15T01:49:11.179Z,-2.43
2022-12-15T01:52:24.284Z,-2.43
2022-12-15T01:55:38.135Z,-2.49
2022-12-15T01:58:53.950Z,-2.52
2022-12-15T02:02:06.119Z,-2.50
2022-12-15T02:05:19.370Z,-2.50
2022-12-15T02:08:31.316Z,-2.54
2022-12-15T02:12:10.192Z,-2.63
2022-12-15T02:15:30.543Z,-2.65
2022-12-15T02:18:48.689Z,-2.65
2022-12-15T02:22:08.568Z,-2.68
2022-12-15T02:25:38.312Z,-2.68
2022-12-15T02:29:00.485Z,-2.65
2022-12-15T02:32:16.886Z,-2.62
2022-12-15T02:35:34.855Z,-2.59
2022-12-15T02:38:48.054Z,-2.54
2022-12-15T02:42:00.440Z,-2.51
2022-12-15T02:45:20.008Z,-2.49
2022-12-15T02:48:38.731Z,-2.48
2022-12-15T02:51:58.230Z,-2.50
2022-12-15T02:55:22.264Z,-2.46
2022-12-15T02:58:40.735Z,-2.44
2022-12-15T03:01:57.519Z,-2.42
2022-12-15T03:05:08.312Z,-2.37
2022-12-15T03:08:21.083Z,-2.43
2022-12-15T03:11:33.231Z,-2.32
2022-12-15T03:14:45.130Z,-2.31
2022-12-15T03:17:56.885Z,-2.30
2022-12-15T03:21:08.738Z,-2.26
2022-12-15T03:24:20.870Z,-2.26
2022-12-15T03:27:32.742Z,-2.26
2022-12-15T03:30:44.887Z,-2.24
2022-12-15T03:33:57.454Z,-2.20
2022-12-15T03:37:09.455Z,-2.18
2022-12-15T03:40:22.119Z,-2.14
2022-12-15T03:43:34.180Z,-2.12
2022-12-15T03:46:46.372Z,-2.09
2022-12-15T03:49:58.378Z,-2.05
2022-12-15T03:53:10.887Z,-2.03
2022-12-15T03:56:23.723Z,-1.99
2022-12-15T03:59:35.630Z,-2.00
2022-12-15T04:02:47.826Z,-1.96
2022-12-15T04:06:01.783Z,-1.93
2022-12-15T04:09:13.671Z,-1.93
2022-12-15T04:12:25.513Z,-1.91
2022-12-15T04:15:37.632Z,-1.88
2022-12-15T04:18:51.721Z,-1.87
2022-12-15T04:22:03.536Z,-1.87
2022-12-15T04:25:33.958Z,-1.83
2022-12-15T04:29:00.510Z,-1.81
2022-12-15T04:32:27.295Z,-1.83
2022-12-15T04:35:55.731Z,-1.80
2022-12-15T04:39:24.943Z,-1.80
2022-12-15T04:42:53.332Z,-1.81
2022-12-15T04:46:19.640Z,-1.81
2022-12-15T04:49:46.725Z,-1.80
2022-12-15T04:53:13.565Z,-1.78
2022-12-15T04:56:40.427Z,-1.80
2022-12-15T05:00:06.950Z,-1.77
2022-12-15T05:03:33.939Z,-1.76
2022-12-15T05:06:59.436Z,-1.76
2022-12-15T05:10:28.329Z,-1.72
2022-12-15T05:13:54.872Z,-1.73
2022-12-15T05:17:21.824Z,-1.71
2022-12-15T05:20:50.004Z,-1.69
2022-12-15T05:24:17.058Z,-1.66
2022-12-15T05:27:43.702Z,-1.66
2022-12-15T05:31:10.289Z,-1.64
2022-12-15T05:34:22.466Z,-1.67
2022-12-15T05:37:34.228Z,-1.66
2022-12-15T05:40:46.253Z,-1.65
2022-12-15T05:43:58.111Z,-1.65
2022-12-15T05:47:11.753Z,-1.67
2022-12-15T05:50:24.229Z,-1.67
2022-12-15T05:53:36.203Z,-1.67
2022-12-15T05:56:50.129Z,-1.68
2022-12-15T06:00:02.104Z,-1.70
2022-12-15T06:03:16.170Z,-1.67
2022-12-15T06:06:28.617Z,-1.65
2022-12-15T06:09:40.921Z,-1.61
2022-12-15T06:12:52.775Z,-1.64
2022-12-15T06:16:10.071Z,-1.61
2022-12-15T06:19:22.059Z,-1.54
2022-12-15T06:22:35.964Z,-1.59
2022-12-15T06:25:47.847Z,-1.59
2022-12-15T06:29:02.767Z,-1.58
2022-12-15T06:32:14.663Z,-1.57
2022-12-15T06:35:26.568Z,-1.55
2022-12-15T06:38:39.285Z,-1.53
2022-12-15T06:41:56.671Z,-1.50
2022-12-15T06:51:41.500Z,-1.44
2022-12-15T06:58:37.372Z,-1.46
2022-12-15T07:02:51.099Z,-1.43
2022-12-15T07:06:12.180Z,-1.39
2022-12-15T07:09:26.259Z,-1.46
2022-12-15T07:12:39.418Z,-1.39
2022-12-15T07:15:51.677Z,-1.36
2022-12-15T07:19:03.824Z,-1.37
2022-12-15T07:22:15.942Z,-1.34
2022-12-15T07:25:28.347Z,-1.31
2022-12-15T07:28:42.195Z,-1.29
2022-12-15T07:31:54.882Z,-1.26
2022-12-15T07:35:08.730Z,-1.27
2022-12-15T07:38:21.068Z,-1.23
2022-12-15T07:41:39.690Z,-1.18
2022-12-15T07:45:01.480Z,-1.11
2022-12-15T07:48:18.683Z,-1.11
2022-12-15T07:51:34.535Z,-1.08
2022-12-15T07:54:48.948Z,-1.05
2022-12-15T07:58:03.939Z,-1.07
2022-12-15T08:01:20.748Z,-1.08
2022-12-15T08:04:34.080Z,-1.05
2022-12-15T08:07:46.090Z,-1.02
2022-12-15T08:10:58.275Z,-1.03
2022-12-15T08:14:16.712Z,-1.02
2022-12-15T08:17:24.682Z,-0.99
2022-12-15T08:20:37.391Z,-1.01
2022-12-15T08:23:49.755Z,-0.95
2022-12-15T08:27:02.380Z,-0.96
2022-12-15T08:30:18.579Z,-0.93
2022-12-15T08:33:30.841Z,-0.93
2022-12-15T08:36:43.076Z,-0.93
2022-12-15T08:39:55.275Z,-0.92
2022-12-15T08:43:07.179Z,-0.98
2022-12-15T08:46:20.368Z,-1.00
2022-12-15T08:49:32.784Z,-1.13
2022-12-15T08:53:06.594Z,-1.04
2022-12-15T08:55:59.288Z,-1.07
2022-12-15T08:59:11.280Z,-1.05
2022-12-15T09:02:23.615Z,-1.05
2022-12-15T09:05:36.265Z,-1.05
2022-12-15T09:08:50.564Z,-1.04
2022-12-15T09:12:02.694Z,-1.00
2022-12-15T09:15:17.115Z,-1.18
2022-12-15T09:18:28.959Z,-1.01
2022-12-15T09:21:44.239Z,-0.95
2022-12-15T09:24:56.515Z,-0.96
2022-12-15T09:28:08.887Z,-1.00
2022-12-15T09:31:23.414Z,-0.99
2022-12-15T09:34:35.416Z,-0.97
2022-12-15T09:37:51.565Z,-0.93
2022-12-15T09:41:01.603Z,-0.85
2022-12-15T09:44:20.161Z,-0.83
2022-12-15T09:47:41.216Z,-0.81
2022-12-15T09:50:57.703Z,-0.80
2022-12-15T09:54:10.390Z,-0.80
2022-12-15T09:57:36.147Z,-0.75
2022-12-15T10:00:55.343Z,-0.67
2022-12-15T10:04:14.581Z,-0.70
2022-12-15T10:10:49.315Z,-0.66
2022-12-15T10:14:11.074Z,-0.56
2022-12-15T10:17:30.460Z,-0.51
2022-12-15T10:20:43.703Z,-0.51
2022-12-15T10:23:57.922Z,-0.62
2022-12-15T10:27:21.532Z,-0.62
2022-12-15T10:30:34.576Z,-0.69
2022-12-15T10:33:50.175Z,-0.67
2022-12-15T10:51:12.013Z,-0.59
2022-12-15T10:57:39.798Z,-0.56
2022-12-15T11:00:52.307Z,-0.48
2022-12-15T11:04:04.681Z,-0.51
2022-12-15T11:07:20.645Z,-0.48
2022-12-15T11:10:40.710Z,-0.43
2022-12-15T11:14:10.782Z,-0.51
2022-12-15T11:17:25.666Z,-0.47
2022-12-15T11:20:41.920Z,-0.48
2022-12-15T11:27:19.026Z,-0.48
2022-12-15T11:30:36.253Z,-0.47
2022-12-15T11:33:49.337Z,-0.48
2022-12-15T11:37:45.149Z,-0.45
2022-12-15T11:40:58.631Z,-0.46
2022-12-15T11:44:30.020Z,-0.51
2022-12-15T11:47:48.122Z,-0.55
2022-12-15T11:51:07.727Z,-0.62
2022-12-15T11:54:30.539Z,-0.55
2022-12-15T11:58:02.002Z,-0.49
2022-12-15T12:01:21.498Z,-0.51
2022-12-15T12:04:40.097Z,-0.47
2022-12-15T12:07:56.326Z,-0.50
2022-12-15T12:11:15.165Z,-0.58
2022-12-15T12:14:39.591Z,-0.60
2022-12-15T12:17:56.018Z,-0.54
2022-12-15T12:21:13.865Z,-0.56
2022-12-15T12:24:31.251Z,-0.50
2022-12-15T12:27:50.235Z,-0.59
2022-12-15T12:31:06.005Z,-0.63
2022-12-15T12:34:22.025Z,-0.53
2022-12-15T12:37:41.507Z,-0.55
2022-12-15T12:41:03.873Z,-0.56
2022-12-15T12:44:22.563Z,-0.62
2022-12-15T12:47:38.421Z,-0.63
2022-12-15T12:50:51.086Z,-0.66
2022-12-15T12:54:03.966Z,-0.64
2022-12-15T12:57:44.759Z,-0.55
2022-12-15T13:01:15.406Z,-0.57
2022-12-15T13:04:48.198Z,-0.57
2022-12-15T13:08:22.706Z,-0.49
2022-12-15T13:12:21.015Z,-0.51
2022-12-15T13:15:26.302Z,-0.46
2022-12-15T13:19:03.233Z,-0.46
2022-12-15T13:22:31.704Z,-0.51
2022-12-15T13:25:55.492Z,-0.51
2022-12-15T13:29:05.488Z,-0.50
2022-12-15T13:32:32.862Z,-0.60
2022-12-15T13:35:46.078Z,-0.64
2022-12-15T13:39:02.167Z,-0.68
2022-12-15T13:42:53.056Z,-0.69
2022-12-15T13:46:02.489Z,-0.70
2022-12-15T13:49:19.470Z,-0.69
2022-12-15T13:53:08.727Z,-0.71
2022-12-15T13:56:13.769Z,-0.74
2022-12-15T13:59:38.567Z,-0.75
2022-12-15T14:02:51.115Z,-0.76
2022-12-15T14:06:05.891Z,-0.74
2022-12-15T14:09:24.010Z,-0.75
2022-12-15T14:12:36.860Z,-0.79
2022-12-15T14:15:54.358Z,-0.80
2022-12-15T14:19:21.347Z,-0.79
2022-12-15T14:22:35.446Z,-0.79
2022-12-15T14:25:51.337Z,-0.83
2022-12-15T14:29:09.172Z,-0.81
2022-12-15T14:32:22.058Z,-0.80
2022-12-15T14:35:39.696Z,-0.83
2022-12-15T14:38:55.536Z,-0.81
2022-12-15T14:42:08.747Z,-0.79
2022-12-15T14:45:29.323Z,-0.74
2022-12-15T14:48:44.349Z,-0.80
2022-12-15T14:52:01.141Z,-0.75
2022-12-15T14:55:38.538Z,-0.75
2022-12-15T14:58:55.481Z,-0.80
2022-12-15T15:02:19.917Z,-0.84
2022-12-15T15:05:40.010Z,-0.79
2022-12-15T15:08:57.366Z,-0.82
2022-12-15T15:12:12.650Z,-0.82
2022-12-15T15:15:31.756Z,-0.80
2022-12-15T15:18:47.370Z,-0.82
2022-12-15T15:22:03.337Z,-0.81
2022-12-15T15:25:44.296Z,-0.78
2022-12-15T15:28:57.785Z,-0.80
2022-12-15T15:32:21.363Z,-0.81
2022-12-15T15:35:38.226Z,-0.83
2022-12-15T15:38:52.229Z,-0.89
2022-12-15T15:42:11.046Z,-0.90
2022-12-15T15:45:23.806Z,-0.90
2022-12-15T15:48:40.278Z,-0.84
2022-12-15T15:51:57.363Z,-0.90
2022-12-15T15:55:21.350Z,-0.91
2022-12-15T15:58:37.013Z,-0.91
2022-12-15T16:01:56.453Z,-0.91
2022-12-15T16:05:13.777Z,-1.00
2022-12-15T16:08:31.320Z,-0.93
2022-12-15T16:11:43.967Z,-0.97
2022-12-15T16:14:56.152Z,-1.01
2022-12-15T16:18:08.574Z,-1.02
2022-12-15T16:21:22.676Z,-1.03
2022-12-15T16:24:34.782Z,-1.03
2022-12-15T16:27:47.573Z,-1.03
2022-12-15T16:31:01.786Z,-1.04
2022-12-15T16:34:13.839Z,-1.00
2022-12-15T16:37:39.223Z,-1.04
2022-12-15T16:40:46.832Z,-1.05
2022-12-15T16:43:58.990Z,-1.11
2022-12-15T16:47:10.985Z,-1.11
2022-12-15T16:50:25.117Z,-1.14
2022-12-15T16:53:40.900Z,-1.16
2022-12-15T16:56:53.284Z,-1.13
2022-12-15T17:00:05.473Z,-1.08
2022-12-15T17:03:23.205Z,-1.08
2022-12-15T17:06:35.795Z,-1.05
2022-12-15T17:09:48.089Z,-1.04
2022-12-15T17:13:05.853Z,-1.03
2022-12-15T17:16:20.108Z,-1.09
2022-12-15T17:19:32.273Z,-1.07
2022-12-15T17:22:44.592Z,-1.07
2022-12-15T17:26:22.557Z,-1.14
2022-12-15T17:29:20.178Z,-1.07
2022-12-15T17:32:32.565Z,-1.08
2022-12-15T17:35:44.679Z,-1.08
2022-12-15T17:39:01.152Z,-1.11
2022-12-15T17:42:23.106Z,-1.10
2022-12-15T17:45:35.754Z,-1.09
2022-12-15T17:48:47.833Z,-1.14
2022-12-15T17:51:59.896Z,-1.12
2022-12-15T17:55:34.629Z,-1.12
2022-12-15T17:58:42.653Z,-1.15
2022-12-15T18:01:57.210Z,-1.16
2022-12-15T18:05:11.313Z,-1.17
2022-12-15T18:08:27.202Z,-1.26
2022-12-15T18:11:39.181Z,-1.16
2022-12-15T18:14:51.200Z,-1.16
2022-12-15T18:18:04.205Z,-1.15
2022-12-15T18:21:23.408Z,-1.15
2022-12-15T18:24:36.328Z,-1.21
2022-12-15T18:27:48.735Z,-1.26
2022-12-15T18:31:05.669Z,-1.24
2022-12-15T18:34:18.767Z,-1.20
2022-12-15T18:37:31.285Z,-1.23
2022-12-15T18:40:43.308Z,-1.23
2022-12-15T18:43:58.923Z,-1.18
2022-12-15T18:47:18.582Z,-1.23
2022-12-15T18:50:31.983Z,-1.24
2022-12-15T18:53:47.675Z,-1.25
2022-12-15T18:56:59.717Z,-1.27
2022-12-15T19:00:24.650Z,-1.24
2022-12-15T19:03:39.003Z,-1.27
2022-12-15T19:06:52.377Z,-1.27
2022-12-15T19:10:05.088Z,-1.29
2022-12-15T19:13:21.906Z,-1.31
2022-12-15T19:16:37.748Z,-1.35
2022-12-15T19:20:04.401Z,-1.35
2022-12-15T19:23:18.308Z,-1.38
2022-12-15T19:26:30.617Z,-1.41
2022-12-15T19:29:45.087Z,-1.47
2022-12-15T19:32:57.277Z,-1.48
2022-12-15T19:36:10.334Z,-1.51
2022-12-15T19:39:27.889Z,-1.49
2022-12-15T19:42:42.172Z,-1.51
2022-12-15T19:45:55.924Z,-1.55
2022-12-15T19:49:08.326Z,-1.57
2022-12-15T19:52:22.872Z,-1.54
2022-12-15T19:55:38.387Z,-1.51
2022-12-15T19:58:51.063Z,-1.56
2022-12-15T20:02:04.007Z,-1.55
2022-12-15T20:05:16.690Z,-1.55
2022-12-15T20:08:32.235Z,-1.54
2022-12-15T20:11:44.249Z,-1.61
2022-12-15T20:14:56.256Z,-1.63
2022-12-15T20:18:09.004Z,-1.65
2022-12-15T20:21:22.738Z,-1.65
2022-12-15T20:24:36.949Z,-1.62
2022-12-15T20:27:49.058Z,-1.62
2022-12-15T20:31:02.669Z,-1.64
2022-12-15T20:34:14.540Z,-1.66
2022-12-15T20:37:31.886Z,-1.66
2022-12-15T20:40:43.878Z,-1.66
2022-12-15T20:43:57.859Z,-1.68
2022-12-15T20:47:10.437Z,-1.72
2022-12-15T20:50:36.416Z,-1.70
2022-12-15T20:53:48.386Z,-1.68
2022-12-15T20:57:00.358Z,-1.73
2022-12-15T21:00:17.897Z,-1.68
2022-12-15T21:03:33.456Z,-1.74
2022-12-15T21:06:48.691Z,-1.71
2022-12-15T21:09:59.728Z,-1.77
2022-12-15T21:13:20.150Z,-1.77
2022-12-15T21:16:34.290Z,-1.76
2022-12-15T21:19:46.263Z,-1.73
2022-12-15T21:22:58.298Z,-1.80
2022-12-15T21:26:15.381Z,-1.80
2022-12-15T21:29:32.017Z,-1.79
2022-12-15T21:32:43.968Z,-1.79
2022-12-15T21:35:56.036Z,-1.83
2022-12-15T21:39:11.615Z,-1.81
2022-12-15T21:42:25.121Z,-1.72
2022-12-15T21:45:37.109Z,-1.72
2022-12-15T21:49:04.255Z,-1.75
2022-12-15T21:52:17.550Z,-1.80
2022-12-15T21:55:32.311Z,-1.83
2022-12-15T21:58:44.281Z,-1.84
2022-12-15T22:01:57.140Z,-1.86
2022-12-15T22:05:10.713Z,-1.86
2022-12-15T22:08:25.714Z,-1.88
2022-12-15T22:11:38.869Z,-1.87
2022-12-15T22:14:50.843Z,-1.91
2022-12-15T22:18:03.621Z,-1.89
2022-12-15T22:21:15.945Z,-1.90
2022-12-15T22:24:27.795Z,-1.94
2022-12-15T22:27:40.499Z,-1.94
2022-12-15T22:30:52.460Z,-1.97
2022-12-15T22:34:06.290Z,-2.01
2022-12-15T22:37:18.060Z,-1.98
2022-12-15T22:40:30.862Z,-2.01
2022-12-15T22:43:47.646Z,-2.02
2022-12-15T22:47:02.719Z,-1.99
2022-12-15T22:50:20.163Z,-2.03
2022-12-15T22:53:36.654Z,-2.20
2022-12-15T22:56:48.686Z,-2.08
2022-12-15T23:00:05.673Z,-2.07
2022-12-15T23:03:18.748Z,-2.03
2022-12-15T23:06:32.016Z,-1.96
2022-12-15T23:09:44.024Z,-2.08
2022-12-15T23:12:56.491Z,-2.09
2022-12-15T23:16:25.025Z,-2.06
2022-12-15T23:19:37.059Z,-2.05
2022-12-15T23:22:49.044Z,-2.06
2022-12-15T23:26:01.043Z,-2.03
2022-12-15T23:29:12.965Z,-2.05
2022-12-15T23:32:24.736Z,-2.03
2022-12-15T23:35:36.574Z,-2.03
2022-12-15T23:38:48.848Z,-2.03
2022-12-15T23:42:00.681Z,-2.01
2022-12-15T23:45:15.402Z,-2.01
2022-12-15T23:48:27.278Z,-2.02
2022-12-15T23:51:39.114Z,-2.05
2022-12-15T23:54:51.104Z,-2.01
2022-12-15T23:58:04.228Z,-2.06
